createdAt,value
2023-04-05T00:03:01.432Z,-3.23
2023-04-05T00:06:05.627Z,-3.24
2023-04-05T00:09:08.042Z,-3.25
2023-04-05T00:12:10.839Z,-3.29
2023-04-05T00:15:13.284Z,-3.22
2023-04-05T00:18:22.230Z,-2.91
2023-04-05T00:21:25.336Z,-2.95
2023-04-05T00:24:29.566Z,-3.00
2023-04-05T00:27:32.227Z,-3.12
2023-04-05T00:30:34.550Z,-3.18
2023-04-05T00:33:36.976Z,-3.25
2023-04-05T00:36:39.442Z,-3.14
2023-04-05T00:39:42.030Z,-3.23
2023-04-05T00:42:44.368Z,-3.27
2023-04-05T00:45:47.761Z,-3.39
2023-04-05T00:48:50.624Z,-3.48
2023-04-05T00:51:53.681Z,-3.66
2023-04-05T00:54:56.970Z,-3.71
2023-04-05T00:57:59.350Z,-3.82
2023-04-05T01:01:06.618Z,-3.87
2023-04-05T01:04:11.597Z,-4.06
2023-04-05T01:07:42.409Z,-3.75
2023-04-05T01:10:51.752Z,-3.67
2023-04-05T01:14:01.614Z,-3.62
2023-04-05T01:17:03.971Z,-3.54
2023-04-05T01:20:11.944Z,-3.42
2023-04-05T01:23:46.865Z,-3.32
2023-04-05T01:27:03.320Z,-3.35
2023-04-05T01:30:19.030Z,-3.34
2023-04-05T01:33:33.307Z,-3.20
2023-04-05T01:36:42.065Z,-3.22
2023-04-05T01:39:44.413Z,-3.20
2023-04-05T01:42:46.829Z,-3.15
2023-04-05T01:45:49.203Z,-3.17
2023-04-05T01:48:51.837Z,-3.34
2023-04-05T01:51:55.284Z,-3.13
2023-04-05T01:54:57.683Z,-3.13
2023-04-05T01:58:00.062Z,-3.23
2023-04-05T02:01:02.746Z,-2.93
2023-04-05T02:04:05.085Z,-2.80
2023-04-05T02:07:07.436Z,-2.93
2023-04-05T02:10:09.958Z,-2.99
2023-04-05T02:13:14.215Z,-3.02
2023-04-05T02:16:17.449Z,-2.84
2023-04-05T02:19:23.272Z,-2.76
2023-04-05T02:22:25.926Z,-2.64
2023-04-05T02:25:28.691Z,-2.78
2023-04-05T02:28:31.263Z,-2.58
2023-04-05T02:31:33.671Z,-2.63
2023-04-05T02:34:37.144Z,-2.57
2023-04-05T02:37:39.689Z,-2.50
2023-04-05T02:40:43.636Z,-2.59
2023-04-05T02:43:46.588Z,-2.43
2023-04-05T02:46:49.056Z,-2.51
2023-04-05T02:49:52.409Z,-2.49
2023-04-05T02:52:55.156Z,-2.65
2023-04-05T02:56:00.012Z,-2.50
2023-04-05T02:59:04.109Z,-2.43
2023-04-05T03:02:07.190Z,-2.39
2023-04-05T03:05:10.435Z,-2.34
2023-04-05T03:08:19.929Z,-2.46
2023-04-05T03:11:34.138Z,-2.37
2023-04-05T03:14:36.959Z,-2.35
2023-04-05T03:17:39.765Z,-2.50
2023-04-05T03:20:42.149Z,-2.57
2023-04-05T03:23:52.180Z,-2.35
2023-04-05T03:27:06.234Z,-2.44
2023-04-05T03:30:21.259Z,-2.38
2023-04-05T03:33:32.136Z,-2.47
2023-04-05T03:36:41.948Z,-2.36
2023-04-05T03:39:52.017Z,-2.35
2023-04-05T03:42:54.986Z,-2.40
2023-04-05T03:45:57.409Z,-2.41
2023-04-05T03:49:03.985Z,-2.44
2023-04-05T03:52:06.717Z,-2.36
2023-04-05T03:55:09.586Z,-2.48
2023-04-05T03:58:12.818Z,-2.34
2023-04-05T04:01:16.790Z,-2.51
2023-04-05T04:04:19.172Z,-2.51
2023-04-05T04:07:23.585Z,-2.54
2023-04-05T04:10:25.923Z,-2.46
2023-04-05T04:13:31.754Z,-2.45
2023-04-05T04:16:55.915Z,-2.39
2023-04-05T04:20:11.277Z,-2.29
2023-04-05T04:23:39.931Z,-2.46
2023-04-05T04:27:11.642Z,-2.40
2023-04-05T04:30:22.826Z,-2.37
2023-04-05T04:33:43.720Z,-2.48
2023-04-05T04:36:57.824Z,-2.44
2023-04-05T04:40:48.006Z,-2.19
2023-04-05T04:44:08.884Z,-2.20
2023-04-05T04:47:31.966Z,-2.50
2023-04-05T04:50:52.556Z,-2.55
2023-04-05T04:53:55.965Z,-2.17
2023-04-05T04:56:58.408Z,-2.22
2023-04-05T05:00:00.914Z,-2.32
2023-04-05T05:03:03.572Z,-2.18
2023-04-05T05:06:06.775Z,-2.20
2023-04-05T05:09:10.409Z,-2.16
2023-04-05T05:12:22.482Z,-2.12
2023-04-05T05:15:24.967Z,-1.99
2023-04-05T05:18:27.339Z,-1.87
2023-04-05T05:21:29.770Z,-1.96
2023-04-05T05:24:35.821Z,-1.91
2023-04-05T05:27:38.094Z,-1.84
2023-04-05T05:30:40.603Z,-1.71
2023-04-05T05:33:43.234Z,-1.56
2023-04-05T05:36:45.721Z,-1.42
2023-04-05T05:39:48.169Z,-1.66
2023-04-05T05:42:50.617Z,-1.68
2023-04-05T05:45:53.195Z,-1.51
2023-04-05T05:48:55.977Z,-1.66
2023-04-05T05:51:58.425Z,-1.46
2023-04-05T05:55:01.005Z,-1.48
2023-04-05T05:58:03.706Z,-1.32
2023-04-05T06:01:12.416Z,-1.21
2023-04-05T06:04:15.103Z,-1.19
2023-04-05T06:07:17.697Z,-1.43
2023-04-05T06:10:20.402Z,-0.97
2023-04-05T06:13:22.670Z,-0.90
2023-04-05T06:16:25.166Z,-0.86
2023-04-05T06:19:27.872Z,-0.23
2023-04-05T06:22:30.346Z,0.20
2023-04-05T06:25:33.004Z,0.53
2023-04-05T06:28:35.437Z,1.03
2023-04-05T06:31:38.327Z,1.41
2023-04-05T06:34:41.144Z,1.36
2023-04-05T06:37:43.514Z,1.65
2023-04-05T06:40:46.028Z,1.59
2023-04-05T06:43:48.414Z,1.48
2023-04-05T06:46:50.934Z,1.79
2023-04-05T06:49:53.217Z,1.76
2023-04-05T06:52:55.585Z,1.52
2023-04-05T06:55:59.863Z,1.56
2023-04-05T06:59:02.980Z,0.89
2023-04-05T07:02:05.479Z,0.63
2023-04-05T07:05:09.027Z,0.70
2023-04-05T07:08:11.510Z,0.65
2023-04-05T07:11:13.961Z,0.43
2023-04-05T07:14:16.474Z,0.66
2023-04-05T07:17:18.870Z,0.65
2023-04-05T07:20:21.281Z,1.06
2023-04-05T07:23:23.549Z,0.91
2023-04-05T07:26:27.318Z,0.96
2023-04-05T07:29:29.725Z,1.00
2023-04-05T07:32:32.177Z,0.70
2023-04-05T07:35:34.593Z,1.11
2023-04-05T07:38:37.008Z,1.21
2023-04-05T07:41:40.205Z,1.27
2023-04-05T07:44:43.516Z,1.47
2023-04-05T07:47:46.765Z,2.10
2023-04-05T07:50:49.409Z,2.51
2023-04-05T07:53:51.969Z,2.48
2023-04-05T07:56:55.924Z,2.47
2023-04-05T07:59:58.362Z,2.47
2023-04-05T08:03:02.428Z,2.99
2023-04-05T08:06:19.142Z,2.91
2023-04-05T08:09:21.544Z,3.55
2023-04-05T08:12:24.448Z,3.57
2023-04-05T08:15:27.082Z,3.96
2023-04-05T08:18:29.633Z,4.20
2023-04-05T08:21:32.135Z,4.37
2023-04-05T08:24:34.589Z,4.83
2023-04-05T08:27:37.033Z,4.43
2023-04-05T08:30:40.562Z,4.64
2023-04-05T08:33:43.121Z,4.49
2023-04-05T08:36:47.088Z,4.12
2023-04-05T08:39:50.955Z,4.19
2023-04-05T08:42:58.649Z,4.84
2023-04-05T08:46:01.815Z,4.45
2023-04-05T08:49:08.326Z,3.88
2023-04-05T08:52:11.712Z,3.75
2023-04-05T08:55:14.417Z,3.19
2023-04-05T08:58:17.397Z,2.89
2023-04-05T09:01:20.234Z,2.34
2023-04-05T09:04:27.583Z,2.20
2023-04-05T09:07:31.469Z,2.58
2023-04-05T09:10:33.993Z,2.67
2023-04-05T09:13:36.580Z,2.74
2023-04-05T09:16:40.869Z,3.02
2023-04-05T09:19:43.810Z,2.99
2023-04-05T09:22:47.036Z,3.61
2023-04-05T09:25:52.821Z,3.57
2023-04-05T09:28:55.117Z,4.03
2023-04-05T09:31:57.444Z,3.74
2023-04-05T09:35:04.752Z,3.82
2023-04-05T09:38:10.172Z,3.96
2023-04-05T09:41:13.557Z,4.32
2023-04-05T09:44:16.044Z,4.82
2023-04-05T09:47:20.075Z,5.14
2023-04-05T09:50:26.502Z,5.30
2023-04-05T09:53:30.404Z,4.78
2023-04-05T09:56:54.168Z,4.87
2023-04-05T09:59:56.910Z,4.57
2023-04-05T10:02:59.282Z,4.82
2023-04-05T10:06:02.118Z,5.54
2023-04-05T10:09:05.391Z,5.29
2023-04-05T10:12:09.188Z,5.39
2023-04-05T10:15:14.249Z,5.98
2023-04-05T10:18:22.702Z,5.48
2023-04-05T10:21:32.039Z,5.73
2023-04-05T10:24:50.904Z,5.78
2023-04-05T10:28:04.530Z,5.50
2023-04-05T10:31:40.288Z,4.69
2023-04-05T10:35:07.002Z,4.74
2023-04-05T10:38:24.473Z,4.42
2023-04-05T10:41:27.111Z,4.04
2023-04-05T10:44:33.341Z,4.15
2023-04-05T10:47:41.842Z,4.56
2023-04-05T10:50:44.825Z,4.15
2023-04-05T10:53:48.580Z,4.33
2023-04-05T10:56:52.703Z,4.62
2023-04-05T10:59:55.273Z,4.83
2023-04-05T11:02:57.735Z,4.98
2023-04-05T11:06:18.328Z,5.66
2023-04-05T11:09:21.688Z,5.74
2023-04-05T11:12:59.019Z,6.19
2023-04-05T11:16:10.498Z,6.32
2023-04-05T11:19:12.841Z,6.00
2023-04-05T11:22:26.316Z,5.66
2023-04-05T11:25:28.813Z,6.06
2023-04-05T11:28:40.733Z,5.90
2023-04-05T11:32:02.678Z,5.77
2023-04-05T11:35:13.100Z,5.66
2023-04-05T11:38:23.204Z,7.22
2023-04-05T11:41:26.639Z,7.51
2023-04-05T11:44:49.118Z,7.41
2023-04-05T11:47:51.682Z,7.67
2023-04-05T11:50:54.831Z,7.62
2023-04-05T11:53:57.219Z,7.22
2023-04-05T11:57:00.045Z,6.81
2023-04-05T12:00:02.412Z,6.38
2023-04-05T12:03:17.922Z,5.73
2023-04-05T12:06:23.535Z,5.54
2023-04-05T12:09:26.139Z,5.53
2023-04-05T12:12:28.960Z,5.13
2023-04-05T12:15:31.548Z,5.48
2023-04-05T12:18:38.244Z,5.57
2023-04-05T12:21:40.644Z,6.25
2023-04-05T12:24:43.023Z,6.53
2023-04-05T12:27:45.854Z,6.43
2023-04-05T12:30:52.351Z,6.45
2023-04-05T12:34:00.167Z,6.42
2023-04-05T12:37:03.822Z,6.52
2023-04-05T12:40:06.722Z,6.29
2023-04-05T12:43:09.839Z,5.96
2023-04-05T12:46:13.142Z,6.35
2023-04-05T12:49:19.409Z,6.22
2023-04-05T12:52:21.697Z,5.70
2023-04-05T12:55:24.861Z,6.03
2023-04-05T12:58:35.056Z,5.61
2023-04-05T13:01:38.322Z,5.51
2023-04-05T13:04:40.902Z,5.40
2023-04-05T13:07:43.153Z,5.11
2023-04-05T13:10:49.370Z,5.10
2023-04-05T13:13:51.911Z,5.96
2023-04-05T13:16:54.256Z,5.99
2023-04-05T13:19:56.897Z,5.60
2023-04-05T13:22:59.276Z,5.80
2023-04-05T13:26:01.643Z,5.89
2023-04-05T13:29:04.176Z,5.73
2023-04-05T13:32:06.629Z,5.62
2023-04-05T13:35:09.836Z,5.78
2023-04-05T13:38:12.336Z,5.57
2023-04-05T13:41:16.156Z,5.55
2023-04-05T13:44:18.701Z,6.04
2023-04-05T13:47:21.148Z,6.03
2023-04-05T13:50:23.726Z,6.11
2023-04-05T13:53:28.348Z,5.87
2023-04-05T13:56:31.020Z,5.87
2023-04-05T13:59:33.481Z,5.26
2023-04-05T14:02:36.318Z,5.11
2023-04-05T14:05:38.673Z,5.06
2023-04-05T14:08:41.064Z,4.67
2023-04-05T14:11:43.500Z,4.89
2023-04-05T14:14:45.825Z,4.89
2023-04-05T14:17:48.238Z,4.90
2023-04-05T14:20:50.702Z,5.09
2023-04-05T14:23:57.071Z,5.16
2023-04-05T14:26:59.587Z,5.05
2023-04-05T14:30:02.116Z,4.75
2023-04-05T14:33:04.479Z,4.68
2023-04-05T14:36:07.038Z,4.88
2023-04-05T14:39:09.457Z,4.93
2023-04-05T14:42:11.851Z,5.22
2023-04-05T14:45:14.206Z,5.57
2023-04-05T14:48:16.656Z,5.40
2023-04-05T14:51:19.182Z,5.45
2023-04-05T14:54:21.498Z,5.66
2023-04-05T14:57:23.843Z,5.43
2023-04-05T15:00:26.298Z,5.11
2023-04-05T15:03:30.135Z,4.82
2023-04-05T15:06:33.285Z,4.67
2023-04-05T15:09:36.138Z,4.63
2023-04-05T15:12:38.765Z,4.45
2023-04-05T15:15:41.411Z,4.25
2023-04-05T15:18:43.736Z,4.28
2023-04-05T15:21:46.509Z,4.09
2023-04-05T15:24:48.820Z,4.00
2023-04-05T15:27:51.420Z,4.38
2023-04-05T15:30:53.682Z,4.55
2023-04-05T15:33:56.786Z,4.70
2023-04-05T15:36:59.166Z,4.93
2023-04-05T15:40:03.674Z,4.98
2023-04-05T15:43:06.344Z,4.68
2023-04-05T15:46:08.792Z,4.69
2023-04-05T15:49:14.040Z,4.53
2023-04-05T15:52:18.263Z,4.46
2023-04-05T15:55:20.804Z,4.30
2023-04-05T15:58:23.205Z,4.57
2023-04-05T16:01:25.615Z,4.48
2023-04-05T16:04:28.121Z,4.16
2023-04-05T16:07:30.586Z,4.34
2023-04-05T16:10:33.179Z,4.19
2023-04-05T16:13:36.193Z,4.43
2023-04-05T16:16:50.090Z,4.28
2023-04-05T16:19:57.036Z,4.37
2023-04-05T16:22:59.743Z,4.26
2023-04-05T16:26:02.776Z,4.23
2023-04-05T16:29:06.387Z,4.13
2023-04-05T16:32:09.214Z,4.13
2023-04-05T16:35:11.708Z,3.82
2023-04-05T16:38:14.003Z,4.00
2023-04-05T16:41:16.459Z,3.93
2023-04-05T16:44:19.300Z,3.91
2023-04-05T16:47:22.325Z,3.73
2023-04-05T16:50:24.967Z,3.90
2023-04-05T16:53:27.563Z,3.89
2023-04-05T16:56:30.145Z,3.79
2023-04-05T16:59:32.539Z,3.67
2023-04-05T17:02:35.054Z,3.82
2023-04-05T17:05:38.489Z,3.75
2023-04-05T17:08:41.201Z,3.57
2023-04-05T17:11:43.591Z,3.53
2023-04-05T17:14:45.919Z,3.36
2023-04-05T17:17:48.430Z,3.45
2023-04-05T17:20:51.487Z,3.38
2023-04-05T17:23:54.072Z,3.29
2023-04-05T17:26:56.564Z,3.27
2023-04-05T17:30:02.502Z,3.21
2023-04-05T17:33:05.200Z,3.38
2023-04-05T17:36:08.341Z,3.47
2023-04-05T17:39:10.884Z,3.62
2023-04-05T17:42:13.241Z,3.51
2023-04-05T17:45:15.685Z,3.29
2023-04-05T17:48:19.006Z,3.35
2023-04-05T17:51:22.205Z,3.34
2023-04-05T17:54:24.937Z,3.07
2023-04-05T17:57:27.280Z,3.19
2023-04-05T18:00:29.616Z,3.36
2023-04-05T18:03:32.316Z,3.24
2023-04-05T18:06:34.881Z,3.21
2023-04-05T18:09:38.577Z,3.05
2023-04-05T18:12:41.463Z,3.09
2023-04-05T18:15:43.853Z,3.14
2023-04-05T18:18:48.043Z,3.03
2023-04-05T18:21:50.513Z,3.04
2023-04-05T18:24:53.142Z,3.07
2023-04-05T18:27:56.236Z,2.97
2023-04-05T18:30:59.668Z,2.72
2023-04-05T18:34:04.877Z,2.85
2023-04-05T18:37:07.494Z,2.86
2023-04-05T18:40:10.179Z,2.84
2023-04-05T18:43:12.511Z,2.81
2023-04-05T18:46:18.778Z,2.91
2023-04-05T18:49:21.763Z,2.98
2023-04-05T18:52:26.194Z,2.96
2023-04-05T18:55:28.579Z,2.97
2023-04-05T18:58:31.087Z,2.97
2023-04-05T19:01:33.589Z,3.04
2023-04-05T19:04:35.974Z,2.91
2023-04-05T19:07:38.388Z,3.04
2023-04-05T19:10:40.854Z,2.94
2023-04-05T19:13:43.126Z,3.04
2023-04-05T19:16:45.834Z,2.89
2023-04-05T19:19:48.823Z,2.86
2023-04-05T19:22:51.154Z,2.88
2023-04-05T19:25:57.199Z,2.89
2023-04-05T19:28:59.697Z,2.94
2023-04-05T19:32:02.440Z,2.92
2023-04-05T19:35:07.004Z,2.99
2023-04-05T19:38:13.153Z,2.93
2023-04-05T19:41:15.686Z,3.13
2023-04-05T19:44:57.654Z,2.85
2023-04-05T19:48:02.560Z,2.83
2023-04-05T19:51:07.265Z,3.03
2023-04-05T19:54:15.013Z,3.04
2023-04-05T19:57:19.376Z,2.97
2023-04-05T20:00:55.302Z,2.64
2023-04-05T20:03:57.942Z,2.66
2023-04-05T20:07:01.525Z,2.68
2023-04-05T20:10:16.058Z,2.68
2023-04-05T20:13:19.009Z,2.58
2023-04-05T20:16:27.206Z,2.48
2023-04-05T20:19:31.057Z,2.31
2023-04-05T20:22:33.672Z,2.49
2023-04-05T20:25:42.764Z,2.85
2023-04-05T20:28:56.030Z,2.87
2023-04-05T20:31:59.997Z,2.71
2023-04-05T20:35:02.528Z,2.67
2023-04-05T20:38:06.364Z,2.49
2023-04-05T20:41:11.693Z,2.49
2023-04-05T20:44:14.276Z,2.63
2023-04-05T20:47:17.264Z,2.62
2023-04-05T20:50:21.196Z,2.69
2023-04-05T20:53:25.021Z,2.75
2023-04-05T20:56:27.802Z,2.57
2023-04-05T20:59:30.489Z,2.55
2023-04-05T21:02:33.610Z,2.52
2023-04-05T21:05:36.377Z,2.39
2023-04-05T21:08:42.251Z,2.49
2023-04-05T21:11:44.943Z,2.37
2023-04-05T21:14:48.537Z,2.31
2023-04-05T21:17:50.876Z,2.36
2023-04-05T21:20:53.987Z,2.56
2023-04-05T21:23:56.744Z,2.53
2023-04-05T21:26:59.117Z,2.49
2023-04-05T21:30:01.566Z,2.40
2023-04-05T21:33:04.086Z,2.26
2023-04-05T21:36:06.717Z,2.29
2023-04-05T21:39:09.205Z,2.38
2023-04-05T21:42:13.024Z,2.47
2023-04-05T21:45:15.564Z,2.44
2023-04-05T21:48:18.273Z,2.48
2023-04-05T21:51:20.842Z,2.40
2023-04-05T21:54:23.646Z,2.51
2023-04-05T21:57:26.030Z,2.58
2023-04-05T22:00:28.420Z,2.52
2023-04-05T22:03:31.016Z,2.42
2023-04-05T22:06:33.498Z,2.34
2023-04-05T22:09:36.384Z,2.37
2023-04-05T22:12:39.075Z,2.60
2023-04-05T22:15:41.524Z,2.53
2023-04-05T22:18:44.282Z,2.57
2023-04-05T22:21:46.882Z,2.55
2023-04-05T22:24:49.277Z,2.60
2023-04-05T22:27:51.685Z,2.50
2023-04-05T22:30:54.016Z,2.55
2023-04-05T22:33:56.514Z,2.44
2023-04-05T22:36:59.047Z,2.44
2023-04-05T22:40:01.959Z,2.51
2023-04-05T22:43:04.320Z,2.36
2023-04-05T22:46:06.628Z,2.36
2023-04-05T22:49:09.498Z,2.38
2023-04-05T22:52:12.014Z,2.32
2023-04-05T22:55:14.353Z,2.10
2023-04-05T22:58:17.405Z,2.02
2023-04-05T23:01:19.700Z,2.07
2023-04-05T23:04:22.215Z,2.38
2023-04-05T23:07:24.953Z,2.35
2023-04-05T23:10:27.370Z,2.23
2023-04-05T23:13:29.733Z,2.12
2023-04-05T23:16:32.376Z,2.17
2023-04-05T23:19:34.889Z,2.32
2023-04-05T23:22:37.294Z,2.02
2023-04-05T23:25:39.628Z,2.30
2023-04-05T23:28:41.993Z,1.86
2023-04-05T23:31:44.413Z,2.30
2023-04-05T23:34:47.380Z,2.11
2023-04-05T23:37:50.082Z,2.28
2023-04-05T23:40:52.445Z,2.15
2023-04-05T23:43:54.805Z,2.00
2023-04-05T23:46:57.620Z,2.11
2023-04-05T23:50:00.036Z,2.11
2023-04-05T23:53:03.190Z,2.14
2023-04-05T23:56:06.314Z,2.15
2023-04-05T23:59:08.996Z,2.10
